sensor_id;sensor_type;location;lat;lon;timestamp;P1;durP1;ratioP1;P2;durP2;ratioP2
64543;SDS011;50936;51.660;5.616;2023-08-20T00:01:22;7.93;;;4.45;;
64543;SDS011;50936;51.660;5.616;2023-08-20T00:03:54;9.93;;;4.40;;
64543;SDS011;50936;51.660;5.616;2023-08-20T00:06:22;6.15;;;4.28;;
64543;SDS011;50936;51.660;5.616;2023-08-20T00:08:50;9.18;;;4.55;;
64543;SDS011;50936;51.660;5.616;2023-08-20T00:11:18;7.65;;;4.30;;
64543;SDS011;50936;51.660;5.616;2023-08-20T00:13:44;7.25;;;4.72;;
64543;SDS011;50936;51.660;5.616;2023-08-20T00:16:12;7.45;;;4.20;;
64543;SDS011;50936;51.660;5.616;2023-08-20T00:18:39;5.93;;;4.10;;
64543;SDS011;50936;51.660;5.616;2023-08-20T00:21:07;6.88;;;3.97;;
64543;SDS011;50936;51.660;5.616;2023-08-20T00:23:35;6.80;;;4.47;;
64543;SDS011;50936;51.660;5.616;2023-08-20T00:26:03;6.10;;;3.95;;
64543;SDS011;50936;51.660;5.616;2023-08-20T00:28:31;8.65;;;4.03;;
64543;SDS011;50936;51.660;5.616;2023-08-20T00:31:00;6.97;;;4.07;;
64543;SDS011;50936;51.660;5.616;2023-08-20T00:33:28;7.60;;;4.63;;
64543;SDS011;50936;51.660;5.616;2023-08-20T00:35:55;7.13;;;4.22;;
64543;SDS011;50936;51.660;5.616;2023-08-20T00:38:22;6.72;;;4.03;;
64543;SDS011;50936;51.660;5.616;2023-08-20T00:40:49;6.45;;;3.80;;
64543;SDS011;50936;51.660;5.616;2023-08-20T00:43:16;5.78;;;3.90;;
64543;SDS011;50936;51.660;5.616;2023-08-20T00:45:43;7.22;;;4.20;;
64543;SDS011;50936;51.660;5.616;2023-08-20T00:48:11;8.30;;;4.35;;
64543;SDS011;50936;51.660;5.616;2023-08-20T00:50:39;7.10;;;4.30;;
64543;SDS011;50936;51.660;5.616;2023-08-20T00:53:08;6.00;;;4.10;;
64543;SDS011;50936;51.660;5.616;2023-08-20T00:55:38;7.10;;;3.70;;
64543;SDS011;50936;51.660;5.616;2023-08-20T00:58:05;8.00;;;4.15;;
64543;SDS011;50936;51.660;5.616;2023-08-20T01:00:32;9.00;;;4.10;;
64543;SDS011;50936;51.660;5.616;2023-08-20T01:02:59;6.78;;;3.65;;
64543;SDS011;50936;51.660;5.616;2023-08-20T01:05:26;6.47;;;4.03;;
64543;SDS011;50936;51.660;5.616;2023-08-20T01:08:19;6.70;;;3.80;;
64543;SDS011;50936;51.660;5.616;2023-08-20T01:11:12;5.95;;;4.40;;
64543;SDS011;50936;51.660;5.616;2023-08-20T01:13:54;6.50;;;4.20;;
64543;SDS011;50936;51.660;5.616;2023-08-20T01:16:21;6.75;;;3.70;;
64543;SDS011;50936;51.660;5.616;2023-08-20T01:18:49;6.75;;;3.83;;
64543;SDS011;50936;51.660;5.616;2023-08-20T01:21:38;8.52;;;3.88;;
64543;SDS011;50936;51.660;5.616;2023-08-20T01:24:32;6.38;;;3.83;;
64543;SDS011;50936;51.660;5.616;2023-08-20T01:29:52;7.50;;;4.20;;
64543;SDS011;50936;51.660;5.616;2023-08-20T01:32:22;8.35;;;5.18;;
64543;SDS011;50936;51.660;5.616;2023-08-20T01:34:50;7.22;;;4.00;;
64543;SDS011;50936;51.660;5.616;2023-08-20T01:37:20;8.05;;;4.43;;
64543;SDS011;50936;51.660;5.616;2023-08-20T01:39:48;9.32;;;4.57;;
64543;SDS011;50936;51.660;5.616;2023-08-20T01:42:15;7.30;;;4.03;;
64543;SDS011;50936;51.660;5.616;2023-08-20T01:44:42;8.15;;;4.38;;
64543;SDS011;50936;51.660;5.616;2023-08-20T01:47:08;8.82;;;3.90;;
64543;SDS011;50936;51.660;5.616;2023-08-20T01:49:35;7.05;;;4.13;;
64543;SDS011;50936;51.660;5.616;2023-08-20T01:52:02;7.07;;;4.30;;
64543;SDS011;50936;51.660;5.616;2023-08-20T01:54:30;8.00;;;4.00;;
64543;SDS011;50936;51.660;5.616;2023-08-20T01:56:57;7.13;;;3.90;;
64543;SDS011;50936;51.660;5.616;2023-08-20T01:59:24;7.97;;;3.72;;
64543;SDS011;50936;51.660;5.616;2023-08-20T02:01:51;8.30;;;3.65;;
64543;SDS011;50936;51.660;5.616;2023-08-20T02:04:18;6.65;;;3.95;;
64543;SDS011;50936;51.660;5.616;2023-08-20T02:06:45;9.07;;;4.20;;
64543;SDS011;50936;51.660;5.616;2023-08-20T02:09:12;5.80;;;3.70;;
64543;SDS011;50936;51.660;5.616;2023-08-20T02:11:40;6.82;;;3.72;;
64543;SDS011;50936;51.660;5.616;2023-08-20T02:14:07;12.27;;;4.07;;
64543;SDS011;50936;51.660;5.616;2023-08-20T02:16:34;5.70;;;3.67;;
64543;SDS011;50936;51.660;5.616;2023-08-20T02:19:01;7.53;;;3.30;;
64543;SDS011;50936;51.660;5.616;2023-08-20T02:21:29;7.93;;;3.85;;
64543;SDS011;50936;51.660;5.616;2023-08-20T02:23:56;8.48;;;4.00;;
64543;SDS011;50936;51.660;5.616;2023-08-20T02:26:23;7.30;;;3.78;;
64543;SDS011;50936;51.660;5.616;2023-08-20T02:28:50;6.72;;;4.07;;
64543;SDS011;50936;51.660;5.616;2023-08-20T02:31:17;7.60;;;3.50;;
64543;SDS011;50936;51.660;5.616;2023-08-20T02:33:47;5.47;;;3.63;;
64543;SDS011;50936;51.660;5.616;2023-08-20T02:36:14;8.85;;;3.78;;
64543;SDS011;50936;51.660;5.616;2023-08-20T02:38:40;7.85;;;3.72;;
64543;SDS011;50936;51.660;5.616;2023-08-20T02:41:07;7.78;;;4.00;;
64543;SDS011;50936;51.660;5.616;2023-08-20T02:43:34;5.30;;;3.40;;
64543;SDS011;50936;51.660;5.616;2023-08-20T02:46:01;6.45;;;3.60;;
64543;SDS011;50936;51.660;5.616;2023-08-20T02:48:29;6.78;;;3.85;;
64543;SDS011;50936;51.660;5.616;2023-08-20T02:50:56;6.32;;;3.70;;
64543;SDS011;50936;51.660;5.616;2023-08-20T02:53:23;7.07;;;3.70;;
64543;SDS011;50936;51.660;5.616;2023-08-20T02:55:50;7.75;;;4.00;;
64543;SDS011;50936;51.660;5.616;2023-08-20T02:58:17;7.55;;;3.85;;
64543;SDS011;50936;51.660;5.616;2023-08-20T03:00:44;6.28;;;3.67;;
64543;SDS011;50936;51.660;5.616;2023-08-20T03:03:11;6.88;;;3.85;;
64543;SDS011;50936;51.660;5.616;2023-08-20T03:05:41;8.07;;;3.92;;
64543;SDS011;50936;51.660;5.616;2023-08-20T03:08:08;6.90;;;3.63;;
64543;SDS011;50936;51.660;5.616;2023-08-20T03:10:36;6.22;;;3.55;;
64543;SDS011;50936;51.660;5.616;2023-08-20T03:13:03;8.30;;;3.38;;
64543;SDS011;50936;51.660;5.616;2023-08-20T03:15:30;8.15;;;3.70;;
64543;SDS011;50936;51.660;5.616;2023-08-20T03:17:57;6.00;;;3.33;;
64543;SDS011;50936;51.660;5.616;2023-08-20T03:20:25;6.40;;;3.38;;
64543;SDS011;50936;51.660;5.616;2023-08-20T03:22:51;7.13;;;3.33;;
64543;SDS011;50936;51.660;5.616;2023-08-20T03:25:18;7.75;;;3.60;;
64543;SDS011;50936;51.660;5.616;2023-08-20T03:27:45;6.32;;;3.50;;
64543;SDS011;50936;51.660;5.616;2023-08-20T03:30:13;7.05;;;3.40;;
64543;SDS011;50936;51.660;5.616;2023-08-20T03:32:43;7.30;;;3.45;;
64543;SDS011;50936;51.660;5.616;2023-08-20T03:35:10;6.50;;;3.55;;
64543;SDS011;50936;51.660;5.616;2023-08-20T03:37:37;6.57;;;3.47;;
64543;SDS011;50936;51.660;5.616;2023-08-20T03:40:04;7.72;;;3.42;;
64543;SDS011;50936;51.660;5.616;2023-08-20T03:42:32;5.50;;;3.20;;
64543;SDS011;50936;51.660;5.616;2023-08-20T03:44:59;5.63;;;3.35;;
64543;SDS011;50936;51.660;5.616;2023-08-20T03:47:25;5.63;;;3.42;;
64543;SDS011;50936;51.660;5.616;2023-08-20T03:49:52;7.03;;;3.60;;
64543;SDS011;50936;51.660;5.616;2023-08-20T03:52:19;6.68;;;3.92;;
64543;SDS011;50936;51.660;5.616;2023-08-20T03:54:46;5.63;;;3.50;;
64543;SDS011;50936;51.660;5.616;2023-08-20T03:57:14;5.72;;;3.60;;
64543;SDS011;50936;51.660;5.616;2023-08-20T03:59:41;7.68;;;3.28;;
64543;SDS011;50936;51.660;5.616;2023-08-20T04:02:08;5.13;;;3.05;;
64543;SDS011;50936;51.660;5.616;2023-08-20T04:04:35;7.20;;;3.78;;
64543;SDS011;50936;51.660;5.616;2023-08-20T04:07:03;5.63;;;3.42;;
64543;SDS011;50936;51.660;5.616;2023-08-20T04:09:32;4.95;;;3.08;;
64543;SDS011;50936;51.660;5.616;2023-08-20T04:12:00;7.53;;;3.70;;
64543;SDS011;50936;51.660;5.616;2023-08-20T04:14:28;5.55;;;3.35;;
64543;SDS011;50936;51.660;5.616;2023-08-20T04:16:55;6.85;;;3.30;;
64543;SDS011;50936;51.660;5.616;2023-08-20T04:19:22;8.18;;;3.55;;
64543;SDS011;50936;51.660;5.616;2023-08-20T04:21:49;8.20;;;3.35;;
64543;SDS011;50936;51.660;5.616;2023-08-20T04:24:16;6.15;;;3.53;;
64543;SDS011;50936;51.660;5.616;2023-08-20T04:26:43;6.47;;;3.45;;
64543;SDS011;50936;51.660;5.616;2023-08-20T04:29:11;4.82;;;3.28;;
64543;SDS011;50936;51.660;5.616;2023-08-20T04:31:38;6.90;;;4.05;;
64543;SDS011;50936;51.660;5.616;2023-08-20T04:34:08;8.73;;;5.00;;
64543;SDS011;50936;51.660;5.616;2023-08-20T04:36:55;8.18;;;5.03;;
64543;SDS011;50936;51.660;5.616;2023-08-20T04:39:22;9.45;;;5.18;;
64543;SDS011;50936;51.660;5.616;2023-08-20T04:41:52;8.82;;;4.93;;
64543;SDS011;50936;51.660;5.616;2023-08-20T04:44:20;11.50;;;5.72;;
64543;SDS011;50936;51.660;5.616;2023-08-20T04:46:48;10.27;;;5.28;;
64543;SDS011;50936;51.660;5.616;2023-08-20T04:49:17;10.88;;;5.43;;
64543;SDS011;50936;51.660;5.616;2023-08-20T04:51:44;11.55;;;5.35;;
64543;SDS011;50936;51.660;5.616;2023-08-20T04:54:10;7.28;;;5.43;;
64543;SDS011;50936;51.660;5.616;2023-08-20T04:56:37;9.35;;;5.63;;
64543;SDS011;50936;51.660;5.616;2023-08-20T04:59:04;10.90;;;5.32;;
64543;SDS011;50936;51.660;5.616;2023-08-20T05:01:49;9.77;;;5.45;;
64543;SDS011;50936;51.660;5.616;2023-08-20T05:04:22;11.95;;;6.07;;
64543;SDS011;50936;51.660;5.616;2023-08-20T05:06:49;10.05;;;6.55;;
64543;SDS011;50936;51.660;5.616;2023-08-20T05:09:16;10.90;;;6.10;;
64543;SDS011;50936;51.660;5.616;2023-08-20T05:11:42;10.55;;;6.60;;
64543;SDS011;50936;51.660;5.616;2023-08-20T05:14:09;10.10;;;6.90;;
64543;SDS011;50936;51.660;5.616;2023-08-20T05:16:36;11.80;;;5.18;;
64543;SDS011;50936;51.660;5.616;2023-08-20T05:19:03;11.50;;;6.80;;
64543;SDS011;50936;51.660;5.616;2023-08-20T05:21:31;12.55;;;6.53;;
64543;SDS011;50936;51.660;5.616;2023-08-20T05:23:58;10.57;;;6.20;;
64543;SDS011;50936;51.660;5.616;2023-08-20T05:26:25;11.45;;;6.50;;
64543;SDS011;50936;51.660;5.616;2023-08-20T05:28:52;12.48;;;5.80;;
64543;SDS011;50936;51.660;5.616;2023-08-20T05:31:20;13.20;;;6.45;;
64543;SDS011;50936;51.660;5.616;2023-08-20T05:33:49;13.23;;;7.10;;
64543;SDS011;50936;51.660;5.616;2023-08-20T05:36:16;11.32;;;6.60;;
64543;SDS011;50936;51.660;5.616;2023-08-20T05:38:45;12.73;;;6.15;;
64543;SDS011;50936;51.660;5.616;2023-08-20T05:41:12;10.18;;;6.13;;
64543;SDS011;50936;51.660;5.616;2023-08-20T05:43:39;10.93;;;5.63;;
64543;SDS011;50936;51.660;5.616;2023-08-20T05:46:07;12.00;;;6.22;;
64543;SDS011;50936;51.660;5.616;2023-08-20T05:48:34;12.55;;;7.05;;
64543;SDS011;50936;51.660;5.616;2023-08-20T05:51:01;12.13;;;5.85;;
64543;SDS011;50936;51.660;5.616;2023-08-20T05:53:29;12.07;;;6.53;;
64543;SDS011;50936;51.660;5.616;2023-08-20T05:55:56;9.73;;;5.88;;
64543;SDS011;50936;51.660;5.616;2023-08-20T05:58:23;13.80;;;6.10;;
64543;SDS011;50936;51.660;5.616;2023-08-20T06:00:50;13.27;;;5.93;;
64543;SDS011;50936;51.660;5.616;2023-08-20T06:03:16;13.10;;;6.35;;
64543;SDS011;50936;51.660;5.616;2023-08-20T06:05:43;12.35;;;6.78;;
64543;SDS011;50936;51.660;5.616;2023-08-20T06:08:10;13.25;;;5.60;;
64543;SDS011;50936;51.660;5.616;2023-08-20T06:10:37;9.75;;;5.85;;
64543;SDS011;50936;51.660;5.616;2023-08-20T06:13:04;11.32;;;6.05;;
64543;SDS011;50936;51.660;5.616;2023-08-20T06:15:31;11.77;;;6.40;;
64543;SDS011;50936;51.660;5.616;2023-08-20T06:17:58;8.93;;;5.35;;
64543;SDS011;50936;51.660;5.616;2023-08-20T06:20:25;12.90;;;6.28;;
64543;SDS011;50936;51.660;5.616;2023-08-20T06:22:52;10.40;;;5.20;;
64543;SDS011;50936;51.660;5.616;2023-08-20T06:25:19;10.80;;;4.75;;
64543;SDS011;50936;51.660;5.616;2023-08-20T06:27:46;13.18;;;5.05;;
64543;SDS011;50936;51.660;5.616;2023-08-20T06:30:13;8.63;;;4.35;;
64543;SDS011;50936;51.660;5.616;2023-08-20T06:32:40;10.85;;;5.18;;
64543;SDS011;50936;51.660;5.616;2023-08-20T06:35:07;8.85;;;3.80;;
64543;SDS011;50936;51.660;5.616;2023-08-20T06:37:36;8.57;;;3.95;;
64543;SDS011;50936;51.660;5.616;2023-08-20T06:40:05;10.55;;;4.60;;
64543;SDS011;50936;51.660;5.616;2023-08-20T06:42:33;8.63;;;4.10;;
64543;SDS011;50936;51.660;5.616;2023-08-20T06:45:02;11.65;;;4.15;;
64543;SDS011;50936;51.660;5.616;2023-08-20T06:47:29;10.40;;;4.57;;
64543;SDS011;50936;51.660;5.616;2023-08-20T06:49:56;10.60;;;4.25;;
64543;SDS011;50936;51.660;5.616;2023-08-20T06:52:23;9.85;;;3.80;;
64543;SDS011;50936;51.660;5.616;2023-08-20T06:54:50;14.70;;;4.18;;
64543;SDS011;50936;51.660;5.616;2023-08-20T06:57:17;17.10;;;5.45;;
64543;SDS011;50936;51.660;5.616;2023-08-20T06:59:44;37.97;;;8.48;;
64543;SDS011;50936;51.660;5.616;2023-08-20T07:02:11;22.73;;;5.38;;
64543;SDS011;50936;51.660;5.616;2023-08-20T07:04:38;15.02;;;4.55;;
64543;SDS011;50936;51.660;5.616;2023-08-20T07:07:05;15.75;;;4.80;;
64543;SDS011;50936;51.660;5.616;2023-08-20T07:09:32;39.95;;;8.60;;
64543;SDS011;50936;51.660;5.616;2023-08-20T07:11:59;24.75;;;6.82;;
64543;SDS011;50936;51.660;5.616;2023-08-20T07:14:27;20.40;;;6.45;;
64543;SDS011;50936;51.660;5.616;2023-08-20T07:16:54;17.48;;;5.55;;
64543;SDS011;50936;51.660;5.616;2023-08-20T07:19:21;14.82;;;4.85;;
64543;SDS011;50936;51.660;5.616;2023-08-20T07:21:48;16.90;;;4.70;;
64543;SDS011;50936;51.660;5.616;2023-08-20T07:24:15;22.58;;;4.68;;
64543;SDS011;50936;51.660;5.616;2023-08-20T07:26:42;17.25;;;4.72;;
64543;SDS011;50936;51.660;5.616;2023-08-20T07:29:08;19.55;;;4.03;;
64543;SDS011;50936;51.660;5.616;2023-08-20T07:31:36;15.77;;;4.68;;
64543;SDS011;50936;51.660;5.616;2023-08-20T07:34:03;18.70;;;4.10;;
64543;SDS011;50936;51.660;5.616;2023-08-20T07:36:31;17.75;;;4.55;;
64543;SDS011;50936;51.660;5.616;2023-08-20T07:38:59;15.77;;;4.68;;
64543;SDS011;50936;51.660;5.616;2023-08-20T07:41:28;22.80;;;4.82;;
64543;SDS011;50936;51.660;5.616;2023-08-20T07:43:55;21.73;;;5.60;;
64543;SDS011;50936;51.660;5.616;2023-08-20T07:46:22;22.13;;;5.07;;
64543;SDS011;50936;51.660;5.616;2023-08-20T07:48:49;19.38;;;5.50;;
64543;SDS011;50936;51.660;5.616;2023-08-20T07:51:16;20.08;;;5.35;;
64543;SDS011;50936;51.660;5.616;2023-08-20T07:53:43;14.60;;;4.60;;
64543;SDS011;50936;51.660;5.616;2023-08-20T07:56:10;16.52;;;5.07;;
64543;SDS011;50936;51.660;5.616;2023-08-20T07:58:37;20.40;;;4.75;;
64543;SDS011;50936;51.660;5.616;2023-08-20T08:01:04;21.65;;;4.90;;
64543;SDS011;50936;51.660;5.616;2023-08-20T08:03:31;18.65;;;4.38;;
64543;SDS011;50936;51.660;5.616;2023-08-20T08:05:58;17.00;;;4.97;;
64543;SDS011;50936;51.660;5.616;2023-08-20T08:08:25;15.40;;;4.35;;
64543;SDS011;50936;51.660;5.616;2023-08-20T08:10:52;13.73;;;4.15;;
64543;SDS011;50936;51.660;5.616;2023-08-20T08:13:20;11.13;;;3.15;;
64543;SDS011;50936;51.660;5.616;2023-08-20T08:15:49;11.35;;;3.58;;
64543;SDS011;50936;51.660;5.616;2023-08-20T08:18:21;11.75;;;3.78;;
64543;SDS011;50936;51.660;5.616;2023-08-20T08:20:48;15.15;;;4.40;;
64543;SDS011;50936;51.660;5.616;2023-08-20T08:23:16;17.10;;;4.05;;
64543;SDS011;50936;51.660;5.616;2023-08-20T08:25:43;11.05;;;3.40;;
64543;SDS011;50936;51.660;5.616;2023-08-20T08:28:10;12.00;;;3.60;;
64543;SDS011;50936;51.660;5.616;2023-08-20T08:30:37;11.63;;;3.70;;
64543;SDS011;50936;51.660;5.616;2023-08-20T08:33:05;10.02;;;3.58;;
64543;SDS011;50936;51.660;5.616;2023-08-20T08:35:32;16.73;;;4.38;;
64543;SDS011;50936;51.660;5.616;2023-08-20T08:37:59;18.17;;;3.78;;
64543;SDS011;50936;51.660;5.616;2023-08-20T08:40:27;11.40;;;3.80;;
64543;SDS011;50936;51.660;5.616;2023-08-20T08:42:56;13.32;;;3.83;;
64543;SDS011;50936;51.660;5.616;2023-08-20T08:45:23;9.13;;;3.05;;
64543;SDS011;50936;51.660;5.616;2023-08-20T08:47:50;7.25;;;3.08;;
64543;SDS011;50936;51.660;5.616;2023-08-20T08:50:19;9.63;;;3.38;;
64543;SDS011;50936;51.660;5.616;2023-08-20T08:52:47;9.35;;;3.15;;
64543;SDS011;50936;51.660;5.616;2023-08-20T08:55:19;8.52;;;2.95;;
64543;SDS011;50936;51.660;5.616;2023-08-20T08:57:46;10.93;;;3.05;;
64543;SDS011;50936;51.660;5.616;2023-08-20T09:00:13;9.32;;;3.28;;
64543;SDS011;50936;51.660;5.616;2023-08-20T09:02:40;10.48;;;3.35;;
64543;SDS011;50936;51.660;5.616;2023-08-20T09:05:07;8.88;;;3.03;;
64543;SDS011;50936;51.660;5.616;2023-08-20T09:07:35;10.70;;;3.42;;
64543;SDS011;50936;51.660;5.616;2023-08-20T09:10:02;8.18;;;3.05;;
64543;SDS011;50936;51.660;5.616;2023-08-20T09:12:29;7.55;;;2.70;;
64543;SDS011;50936;51.660;5.616;2023-08-20T09:15:02;11.18;;;3.58;;
64543;SDS011;50936;51.660;5.616;2023-08-20T09:17:29;10.75;;;2.83;;
64543;SDS011;50936;51.660;5.616;2023-08-20T09:19:56;12.10;;;3.00;;
64543;SDS011;50936;51.660;5.616;2023-08-20T09:22:24;8.25;;;2.90;;
64543;SDS011;50936;51.660;5.616;2023-08-20T09:24:54;7.78;;;2.72;;
64543;SDS011;50936;51.660;5.616;2023-08-20T09:27:23;9.57;;;2.63;;
64543;SDS011;50936;51.660;5.616;2023-08-20T09:29:52;9.82;;;3.00;;
64543;SDS011;50936;51.660;5.616;2023-08-20T09:32:22;7.00;;;2.58;;
64543;SDS011;50936;51.660;5.616;2023-08-20T09:34:54;6.10;;;2.38;;
64543;SDS011;50936;51.660;5.616;2023-08-20T09:37:23;7.10;;;2.15;;
64543;SDS011;50936;51.660;5.616;2023-08-20T09:39:51;4.82;;;1.90;;
64543;SDS011;50936;51.660;5.616;2023-08-20T09:42:18;5.60;;;2.08;;
64543;SDS011;50936;51.660;5.616;2023-08-20T09:44:45;7.63;;;2.50;;
64543;SDS011;50936;51.660;5.616;2023-08-20T09:47:17;6.20;;;2.40;;
64543;SDS011;50936;51.660;5.616;2023-08-20T09:49:47;6.25;;;2.20;;
64543;SDS011;50936;51.660;5.616;2023-08-20T09:52:17;7.82;;;2.38;;
64543;SDS011;50936;51.660;5.616;2023-08-20T09:55:08;6.32;;;2.22;;
64543;SDS011;50936;51.660;5.616;2023-08-20T09:57:42;7.97;;;2.42;;
64543;SDS011;50936;51.660;5.616;2023-08-20T10:00:12;7.00;;;2.75;;
64543;SDS011;50936;51.660;5.616;2023-08-20T10:02:43;6.97;;;2.65;;
64543;SDS011;50936;51.660;5.616;2023-08-20T10:05:11;7.50;;;2.67;;
64543;SDS011;50936;51.660;5.616;2023-08-20T10:07:40;6.20;;;2.53;;
64543;SDS011;50936;51.660;5.616;2023-08-20T10:10:09;7.93;;;2.78;;
64543;SDS011;50936;51.660;5.616;2023-08-20T10:12:39;7.47;;;2.58;;
64543;SDS011;50936;51.660;5.616;2023-08-20T10:15:08;6.28;;;2.25;;
64543;SDS011;50936;51.660;5.616;2023-08-20T10:17:38;5.57;;;2.33;;
64543;SDS011;50936;51.660;5.616;2023-08-20T10:20:08;6.25;;;2.15;;
64543;SDS011;50936;51.660;5.616;2023-08-20T10:22:40;5.13;;;1.80;;
64543;SDS011;50936;51.660;5.616;2023-08-20T10:25:09;5.55;;;1.77;;
64543;SDS011;50936;51.660;5.616;2023-08-20T10:27:40;5.20;;;1.90;;
64543;SDS011;50936;51.660;5.616;2023-08-20T10:30:18;5.20;;;1.90;;
64543;SDS011;50936;51.660;5.616;2023-08-20T10:32:53;5.97;;;2.25;;
64543;SDS011;50936;51.660;5.616;2023-08-20T10:35:28;7.28;;;2.28;;
64543;SDS011;50936;51.660;5.616;2023-08-20T10:38:14;5.72;;;2.65;;
64543;SDS011;50936;51.660;5.616;2023-08-20T10:43:30;5.43;;;2.10;;
64543;SDS011;50936;51.660;5.616;2023-08-20T10:46:15;5.68;;;2.20;;
64543;SDS011;50936;51.660;5.616;2023-08-20T10:54:04;5.30;;;2.00;;
64543;SDS011;50936;51.660;5.616;2023-08-20T11:01:44;5.93;;;2.15;;
64543;SDS011;50936;51.660;5.616;2023-08-20T11:04:19;4.53;;;1.70;;
64543;SDS011;50936;51.660;5.616;2023-08-20T11:06:52;6.15;;;1.80;;
64543;SDS011;50936;51.660;5.616;2023-08-20T11:09:21;5.03;;;1.90;;
64543;SDS011;50936;51.660;5.616;2023-08-20T11:11:50;6.80;;;2.42;;
64543;SDS011;50936;51.660;5.616;2023-08-20T11:14:18;4.47;;;1.80;;
64543;SDS011;50936;51.660;5.616;2023-08-20T11:16:47;5.80;;;2.00;;
64543;SDS011;50936;51.660;5.616;2023-08-20T11:19:19;4.88;;;2.00;;
64543;SDS011;50936;51.660;5.616;2023-08-20T11:21:48;5.60;;;2.10;;
64543;SDS011;50936;51.660;5.616;2023-08-20T11:24:16;6.03;;;2.00;;
64543;SDS011;50936;51.660;5.616;2023-08-20T11:26:46;5.45;;;1.98;;
64543;SDS011;50936;51.660;5.616;2023-08-20T11:29:14;7.05;;;2.00;;
64543;SDS011;50936;51.660;5.616;2023-08-20T11:31:47;4.55;;;1.90;;
64543;SDS011;50936;51.660;5.616;2023-08-20T11:34:15;5.75;;;1.80;;
64543;SDS011;50936;51.660;5.616;2023-08-20T11:36:45;5.97;;;1.67;;
64543;SDS011;50936;51.660;5.616;2023-08-20T11:39:12;4.95;;;1.65;;
64543;SDS011;50936;51.660;5.616;2023-08-20T11:41:39;4.78;;;1.65;;
64543;SDS011;50936;51.660;5.616;2023-08-20T11:44:10;4.90;;;1.90;;
64543;SDS011;50936;51.660;5.616;2023-08-20T11:46:45;4.00;;;1.60;;
64543;SDS011;50936;51.660;5.616;2023-08-20T11:49:12;3.90;;;1.58;;
64543;SDS011;50936;51.660;5.616;2023-08-20T11:51:41;4.45;;;1.80;;
64543;SDS011;50936;51.660;5.616;2023-08-20T11:54:14;4.47;;;1.50;;
64543;SDS011;50936;51.660;5.616;2023-08-20T11:56:49;3.72;;;1.63;;
64543;SDS011;50936;51.660;5.616;2023-08-20T11:59:20;4.40;;;1.52;;
64543;SDS011;50936;51.660;5.616;2023-08-20T12:01:51;4.45;;;1.55;;
64543;SDS011;50936;51.660;5.616;2023-08-20T12:04:23;4.05;;;1.60;;
64543;SDS011;50936;51.660;5.616;2023-08-20T12:09:32;5.82;;;1.60;;
64543;SDS011;50936;51.660;5.616;2023-08-20T12:12:00;4.32;;;1.70;;
64543;SDS011;50936;51.660;5.616;2023-08-20T12:14:28;4.13;;;1.50;;
64543;SDS011;50936;51.660;5.616;2023-08-20T12:16:55;4.25;;;1.75;;
64543;SDS011;50936;51.660;5.616;2023-08-20T12:19:22;5.40;;;1.55;;
64543;SDS011;50936;51.660;5.616;2023-08-20T12:21:50;3.55;;;1.40;;
64543;SDS011;50936;51.660;5.616;2023-08-20T12:24:17;3.38;;;1.20;;
64543;SDS011;50936;51.660;5.616;2023-08-20T12:26:47;4.35;;;1.60;;
64543;SDS011;50936;51.660;5.616;2023-08-20T12:29:14;3.90;;;1.48;;
64543;SDS011;50936;51.660;5.616;2023-08-20T12:31:41;4.55;;;1.50;;
64543;SDS011;50936;51.660;5.616;2023-08-20T12:34:08;3.40;;;1.40;;
64543;SDS011;50936;51.660;5.616;2023-08-20T12:36:36;4.72;;;1.70;;
64543;SDS011;50936;51.660;5.616;2023-08-20T12:39:03;6.03;;;1.80;;
64543;SDS011;50936;51.660;5.616;2023-08-20T12:41:31;3.45;;;1.40;;
64543;SDS011;50936;51.660;5.616;2023-08-20T12:43:58;4.35;;;1.17;;
64543;SDS011;50936;51.660;5.616;2023-08-20T12:46:26;4.78;;;1.52;;
64543;SDS011;50936;51.660;5.616;2023-08-20T12:48:53;4.68;;;1.48;;
64543;SDS011;50936;51.660;5.616;2023-08-20T12:51:20;4.05;;;1.40;;
64543;SDS011;50936;51.660;5.616;2023-08-20T12:53:47;2.58;;;1.40;;
64543;SDS011;50936;51.660;5.616;2023-08-20T12:56:15;2.45;;;1.25;;
64543;SDS011;50936;51.660;5.616;2023-08-20T12:58:42;4.00;;;1.50;;
64543;SDS011;50936;51.660;5.616;2023-08-20T13:01:10;3.33;;;1.33;;
64543;SDS011;50936;51.660;5.616;2023-08-20T13:03:38;3.75;;;1.30;;
64543;SDS011;50936;51.660;5.616;2023-08-20T13:06:05;4.18;;;1.45;;
64543;SDS011;50936;51.660;5.616;2023-08-20T13:08:33;3.28;;;1.33;;
64543;SDS011;50936;51.660;5.616;2023-08-20T13:11:00;3.30;;;1.20;;
64543;SDS011;50936;51.660;5.616;2023-08-20T13:13:32;4.38;;;1.33;;
64543;SDS011;50936;51.660;5.616;2023-08-20T13:16:01;3.05;;;1.38;;
64543;SDS011;50936;51.660;5.616;2023-08-20T13:18:29;3.28;;;1.35;;
64543;SDS011;50936;51.660;5.616;2023-08-20T13:20:57;2.42;;;1.10;;
64543;SDS011;50936;51.660;5.616;2023-08-20T13:23:23;2.95;;;1.42;;
64543;SDS011;50936;51.660;5.616;2023-08-20T13:25:50;4.28;;;1.60;;
64543;SDS011;50936;51.660;5.616;2023-08-20T13:28:17;3.97;;;1.40;;
64543;SDS011;50936;51.660;5.616;2023-08-20T13:30:45;3.95;;;1.60;;
64543;SDS011;50936;51.660;5.616;2023-08-20T13:33:12;6.57;;;1.90;;
64543;SDS011;50936;51.660;5.616;2023-08-20T13:35:41;4.22;;;1.55;;
64543;SDS011;50936;51.660;5.616;2023-08-20T13:38:08;3.42;;;1.20;;
64543;SDS011;50936;51.660;5.616;2023-08-20T13:40:35;2.97;;;1.40;;
64543;SDS011;50936;51.660;5.616;2023-08-20T13:43:02;2.70;;;1.30;;
64543;SDS011;50936;51.660;5.616;2023-08-20T13:45:30;3.80;;;1.50;;
64543;SDS011;50936;51.660;5.616;2023-08-20T13:47:58;2.97;;;1.65;;
64543;SDS011;50936;51.660;5.616;2023-08-20T13:50:26;2.38;;;1.30;;
64543;SDS011;50936;51.660;5.616;2023-08-20T13:52:52;3.95;;;1.30;;
64543;SDS011;50936;51.660;5.616;2023-08-20T13:55:19;4.10;;;1.52;;
64543;SDS011;50936;51.660;5.616;2023-08-20T13:57:48;3.13;;;1.30;;
64543;SDS011;50936;51.660;5.616;2023-08-20T14:00:15;3.10;;;1.40;;
64543;SDS011;50936;51.660;5.616;2023-08-20T14:02:43;3.33;;;1.20;;
64543;SDS011;50936;51.660;5.616;2023-08-20T14:05:10;2.30;;;1.10;;
64543;SDS011;50936;51.660;5.616;2023-08-20T14:07:37;2.92;;;1.20;;
64543;SDS011;50936;51.660;5.616;2023-08-20T14:10:05;4.65;;;1.50;;
64543;SDS011;50936;51.660;5.616;2023-08-20T14:12:33;4.18;;;1.40;;
64543;SDS011;50936;51.660;5.616;2023-08-20T14:15:05;5.00;;;1.30;;
64543;SDS011;50936;51.660;5.616;2023-08-20T14:17:32;2.47;;;1.35;;
64543;SDS011;50936;51.660;5.616;2023-08-20T14:19:59;3.47;;;1.15;;
64543;SDS011;50936;51.660;5.616;2023-08-20T14:22:26;3.03;;;1.17;;
64543;SDS011;50936;51.660;5.616;2023-08-20T14:24:53;4.50;;;1.23;;
64543;SDS011;50936;51.660;5.616;2023-08-20T14:27:20;3.13;;;1.20;;
64543;SDS011;50936;51.660;5.616;2023-08-20T14:29:49;5.57;;;1.42;;
64543;SDS011;50936;51.660;5.616;2023-08-20T14:32:16;5.57;;;1.33;;
64543;SDS011;50936;51.660;5.616;2023-08-20T14:34:43;3.08;;;1.42;;
64543;SDS011;50936;51.660;5.616;2023-08-20T14:37:10;4.15;;;1.58;;
64543;SDS011;50936;51.660;5.616;2023-08-20T14:39:39;5.78;;;1.65;;
64543;SDS011;50936;51.660;5.616;2023-08-20T14:42:07;3.88;;;1.33;;
64543;SDS011;50936;51.660;5.616;2023-08-20T14:44:34;4.15;;;1.20;;
64543;SDS011;50936;51.660;5.616;2023-08-20T14:47:01;2.85;;;1.25;;
64543;SDS011;50936;51.660;5.616;2023-08-20T14:49:28;5.18;;;1.30;;
64543;SDS011;50936;51.660;5.616;2023-08-20T14:51:55;3.97;;;1.42;;
64543;SDS011;50936;51.660;5.616;2023-08-20T14:54:42;3.67;;;1.30;;
64543;SDS011;50936;51.660;5.616;2023-08-20T14:57:09;4.88;;;1.60;;
64543;SDS011;50936;51.660;5.616;2023-08-20T14:59:36;3.17;;;1.38;;
64543;SDS011;50936;51.660;5.616;2023-08-20T15:02:03;4.28;;;1.42;;
64543;SDS011;50936;51.660;5.616;2023-08-20T15:04:30;4.22;;;1.20;;
64543;SDS011;50936;51.660;5.616;2023-08-20T15:06:57;3.83;;;1.70;;
64543;SDS011;50936;51.660;5.616;2023-08-20T15:09:24;3.33;;;1.30;;